Time,TemperatureF,DewpointF,PressureIn,WindDirection,WindDirectionDegrees,WindSpeedMPH,WindSpeedGustMPH,Humidity,HourlyPrecipIn,Conditions,Clouds,dailyrainin,SolarRadiationWatts/m^2,SoftwareType,DateUTC
2013-04-11 00:05:00,77.0,71.0,29.98,SE,126,2.0,-999.0,81,-99.99,,,0.00,0,weatherlink.com 1.10,2013-04-11 04:05:00,
2013-04-11 00:20:00,77.2,71.0,29.97,SE,142,4.0,-999.0,80,-99.99,,,0.00,0,weatherlink.com 1.10,2013-04-11 04:20:00,
2013-04-11 00:35:00,77.2,71.0,29.97,South,169,1.0,-999.0,80,-99.99,,,0.00,0,weatherlink.com 1.10,2013-04-11 04:35:00,
2013-04-11 00:50:00,77.2,71.0,29.96,SE,140,3.0,-999.0,80,-99.99,,,0.00,0,weatherlink.com 1.10,2013-04-11 04:50:00,
2013-04-11 01:05:00,77.2,70.0,29.97,SSE,165,3.0,-999.0,79,-99.99,,,0.00,0,weatherlink.com 1.10,2013-04-11 05:05:00,
2013-04-11 01:20:00,77.2,70.0,29.96,SE,136,5.0,-999.0,79,-99.99,,,0.00,0,weatherlink.com 1.10,2013-04-11 05:20:00,
2013-04-11 01:35:00,77.0,70.0,29.95,SE,131,3.0,-999.0,79,-99.99,,,0.00,0,weatherlink.com 1.10,2013-04-11 05:35:00,
2013-04-11 01:50:00,77.0,70.0,29.95,SE,137,5.0,-999.0,80,-99.99,,,0.00,0,weatherlink.com 1.10,2013-04-11 05:50:00,
2013-04-11 02:05:00,77.2,71.0,29.94,SE,138,4.0,-999.0,80,-99.99,,,0.00,0,weatherlink.com 1.10,2013-04-11 06:05:00,
2013-04-11 02:20:00,77.0,70.0,29.94,SSE,149,6.0,-999.0,80,-99.99,,,0.00,0,weatherlink.com 1.10,2013-04-11 06:20:00,
2013-04-11 02:35:00,76.8,70.0,29.93,SSE,163,6.0,-999.0,80,-99.99,,,0.00,0,weatherlink.com 1.10,2013-04-11 06:35:00,
2013-04-11 02:50:00,76.8,71.0,29.93,SE,134,1.0,-999.0,81,-99.99,,,0.00,0,weatherlink.com 1.10,2013-04-11 06:50:00,
2013-04-11 03:05:00,77.0,71.0,29.91,SE,138,4.0,-999.0,81,-99.99,,,0.00,0,weatherlink.com 1.10,2013-04-11 07:05:00,
2013-04-11 03:20:00,77.0,71.0,29.91,South,183,0.0,-999.0,82,-99.99,,,0.00,0,weatherlink.com 1.10,2013-04-11 07:20:00,
2013-04-11 03:35:00,77.0,71.0,29.91,SE,144,5.0,-999.0,82,-99.99,,,0.00,0,weatherlink.com 1.10,2013-04-11 07:35:00,
2013-04-11 03:50:00,76.5,71.0,29.91,SSE,165,8.0,-999.0,82,-99.99,,,0.00,0,weatherlink.com 1.10,2013-04-11 07:50:00,
2013-04-11 04:05:00,76.5,70.0,29.91,SSE,157,4.0,-999.0,81,-99.99,,,0.00,0,weatherlink.com 1.10,2013-04-11 08:05:00,
2013-04-11 04:20:00,76.7,71.0,29.91,SSE,147,7.0,-999.0,82,-99.99,,,0.00,0,weatherlink.com 1.10,2013-04-11 08:20:00,
2013-04-11 04:35:00,76.5,70.0,29.90,SSE,152,5.0,-999.0,81,-99.99,,,0.00,0,weatherlink.com 1.10,2013-04-11 08:35:00,
2013-04-11 04:50:00,76.5,70.0,29.91,SE,141,3.0,-999.0,81,-99.99,,,0.00,0,weatherlink.com 1.10,2013-04-11 08:50:00,
2013-04-11 05:05:00,76.8,71.0,29.91,SE,146,2.0,-999.0,81,-99.99,,,0.00,0,weatherlink.com 1.10,2013-04-11 09:05:00,
2013-04-11 05:20:00,76.8,71.0,29.91,SSE,151,4.0,-999.0,81,-99.99,,,0.00,0,weatherlink.com 1.10,2013-04-11 09:20:00,
2013-04-11 05:35:00,77.0,71.0,29.91,SE,140,2.0,-999.0,81,-99.99,,,0.00,0,weatherlink.com 1.10,2013-04-11 09:35:00,
2013-04-11 05:50:00,76.8,71.0,29.90,South,172,9.0,-999.0,81,-99.99,,,0.00,0,weatherlink.com 1.10,2013-04-11 09:50:00,
2013-04-11 06:05:00,76.8,70.0,29.91,SSE,154,5.0,-999.0,80,-99.99,,,0.00,0,weatherlink.com 1.10,2013-04-11 10:05:00,
2013-04-11 06:20:00,76.8,70.0,29.91,SE,140,2.0,-999.0,80,-99.99,,,0.00,0,weatherlink.com 1.10,2013-04-11 10:20:00,
2013-04-11 06:35:00,77.0,70.0,29.91,SSE,157,3.0,-999.0,80,-99.99,,,0.00,0,weatherlink.com 1.10,2013-04-11 10:35:00,
2013-04-11 06:50:00,77.0,70.0,29.92,SSE,159,1.0,-999.0,80,-99.99,,,0.00,0,weatherlink.com 1.10,2013-04-11 10:50:00,
2013-04-11 07:05:00,76.8,70.0,29.93,SSE,157,7.0,-999.0,80,-99.99,,,0.00,0,weatherlink.com 1.10,2013-04-11 11:05:00,
2013-04-11 07:20:00,76.8,70.0,29.93,SE,146,10.0,-999.0,80,-99.99,,,0.00,9,weatherlink.com 1.10,2013-04-11 11:20:00,
2013-04-11 07:35:00,77.0,70.0,29.93,ESE,119,1.0,-999.0,80,-99.99,,,0.00,18,weatherlink.com 1.10,2013-04-11 11:35:00,
2013-04-11 07:50:00,77.2,71.0,29.93,SE,133,3.0,-999.0,80,-99.99,,,0.00,37,weatherlink.com 1.10,2013-04-11 11:50:00,
2013-04-11 08:05:00,77.4,71.0,29.94,South,171,3.0,-999.0,80,-99.99,,,0.00,58,weatherlink.com 1.10,2013-04-11 12:05:00,
2013-04-11 08:20:00,77.6,71.0,29.94,SE,146,4.0,-999.0,79,-99.99,,,0.00,83,weatherlink.com 1.10,2013-04-11 12:20:00,
2013-04-11 08:35:00,77.7,71.0,29.95,SE,142,3.0,-999.0,79,-99.99,,,0.00,95,weatherlink.com 1.10,2013-04-11 12:35:00,
2013-04-11 08:50:00,77.9,71.0,29.95,SSE,168,7.0,-999.0,78,-99.99,,,0.00,65,weatherlink.com 1.10,2013-04-11 12:50:00,
2013-04-11 09:05:00,77.9,71.0,29.96,SE,136,4.0,-999.0,78,-99.99,,,0.00,114,weatherlink.com 1.10,2013-04-11 13:05:00,
2013-04-11 09:20:00,78.5,71.0,29.96,ENE,62,9.0,-999.0,78,-99.99,,,0.00,271,weatherlink.com 1.10,2013-04-11 13:20:00,
2013-04-11 09:35:00,78.8,71.0,29.96,SE,146,2.0,-999.0,76,-99.99,,,0.00,283,weatherlink.com 1.10,2013-04-11 13:35:00,
2013-04-11 09:50:00,79.2,71.0,29.96,SE,141,2.0,-999.0,76,-99.99,,,0.00,334,weatherlink.com 1.10,2013-04-11 13:50:00,
2013-04-11 10:05:00,79.9,71.0,29.96,ESE,113,1.0,-999.0,75,-99.99,,,0.00,329,weatherlink.com 1.10,2013-04-11 14:05:00,
2013-04-11 10:20:00,79.8,71.0,29.97,SSE,147,3.0,-999.0,75,-99.99,,,0.00,308,weatherlink.com 1.10,2013-04-11 14:20:00,
2013-04-11 10:35:00,80.5,72.0,29.97,SE,146,3.0,-999.0,74,-99.99,,,0.00,250,weatherlink.com 1.10,2013-04-11 14:35:00,
2013-04-11 10:50:00,80.5,71.0,29.97,SSE,150,3.0,-999.0,73,-99.99,,,0.00,533,weatherlink.com 1.10,2013-04-11 14:50:00,
2013-04-11 11:05:00,81.2,71.0,29.98,SSE,158,4.0,-999.0,72,-99.99,,,0.00,788,weatherlink.com 1.10,2013-04-11 15:05:00,
2013-04-11 11:20:00,81.1,72.0,29.98,South,169,5.0,-999.0,73,-99.99,,,0.00,552,weatherlink.com 1.10,2013-04-11 15:20:00,
2013-04-11 11:35:00,81.8,72.0,29.97,SSE,151,6.0,-999.0,71,-99.99,,,0.00,304,weatherlink.com 1.10,2013-04-11 15:35:00,
2013-04-11 11:50:00,82.0,72.0,29.96,SSE,152,5.0,-999.0,72,-99.99,,,0.00,930,weatherlink.com 1.10,2013-04-11 15:50:00,
2013-04-11 12:05:00,82.4,72.0,29.96,SSE,159,5.0,-999.0,70,-99.99,,,0.00,1085,weatherlink.com 1.10,2013-04-11 16:05:00,
2013-04-11 12:20:00,82.2,72.0,29.96,SE,140,10.0,-999.0,70,-99.99,,,0.00,487,weatherlink.com 1.10,2013-04-11 16:20:00,
2013-04-11 12:35:00,83.2,72.0,29.96,SE,132,3.0,-999.0,69,-99.99,,,0.00,1146,weatherlink.com 1.10,2013-04-11 16:35:00,
2013-04-11 12:50:00,83.0,72.0,29.96,South,171,8.0,-999.0,69,-99.99,,,0.00,991,weatherlink.com 1.10,2013-04-11 16:50:00,
2013-04-11 13:05:00,83.2,72.0,29.95,SSE,155,5.0,-999.0,69,-99.99,,,0.00,1016,weatherlink.com 1.10,2013-04-11 17:05:00,
2013-04-11 13:20:00,82.8,73.0,29.95,SSE,148,2.0,-999.0,71,-99.99,,,0.00,795,weatherlink.com 1.10,2013-04-11 17:20:00,
2013-04-11 13:35:00,83.2,72.0,29.94,ESE,115,4.0,-999.0,70,-99.99,,,0.00,1202,weatherlink.com 1.10,2013-04-11 17:35:00,
2013-04-11 13:50:00,82.6,72.0,29.94,ESE,111,3.0,-999.0,70,-99.99,,,0.00,1032,weatherlink.com 1.10,2013-04-11 17:50:00,
2013-04-11 14:05:00,84.1,73.0,29.93,ESE,112,4.0,-999.0,69,-99.99,,,0.00,1143,weatherlink.com 1.10,2013-04-11 18:05:00,
2013-04-11 14:20:00,82.8,72.0,29.92,SE,143,6.0,-999.0,70,-99.99,,,0.00,396,weatherlink.com 1.10,2013-04-11 18:20:00,
2013-04-11 14:35:00,83.2,72.0,29.92,SE,128,2.0,-999.0,70,-99.99,,,0.00,1060,weatherlink.com 1.10,2013-04-11 18:35:00,
2013-04-11 14:50:00,83.8,73.0,29.91,South,171,11.0,-999.0,70,-99.99,,,0.00,1106,weatherlink.com 1.10,2013-04-11 18:50:00,
2013-04-11 15:05:00,83.4,72.0,29.91,South,178,2.0,-999.0,69,-99.99,,,0.00,341,weatherlink.com 1.10,2013-04-11 19:05:00,
2013-04-11 15:20:00,83.4,72.0,29.90,ESE,121,4.0,-999.0,69,-99.99,,,0.00,1074,weatherlink.com 1.10,2013-04-11 19:20:00,
2013-04-11 15:38:00,84.0,72.0,29.89,SE,130,5.0,-999.0,68,-99.99,,,0.00,921,weatherlink.com 1.10,2013-04-11 19:38:00,
2013-04-11 15:49:00,83.6,72.0,29.89,SSE,159,5.0,-999.0,69,-99.99,,,0.00,459,weatherlink.com 1.10,2013-04-11 19:49:00,
2013-04-11 16:04:00,82.4,73.0,29.88,SE,142,12.0,-999.0,72,-99.99,,,0.00,902,weatherlink.com 1.10,2013-04-11 20:04:00,
2013-04-11 16:19:00,81.6,72.0,29.88,SSE,166,6.0,-999.0,72,-99.99,,,0.00,199,weatherlink.com 1.10,2013-04-11 20:19:00,
2013-04-11 16:34:00,81.4,72.0,29.88,SE,144,6.0,-999.0,73,-99.99,,,0.00,773,weatherlink.com 1.10,2013-04-11 20:34:00,
2013-04-11 16:49:00,81.6,72.0,29.88,SSE,156,9.0,-999.0,73,-99.99,,,0.00,137,weatherlink.com 1.10,2013-04-11 20:49:00,
2013-04-11 17:04:00,80.7,72.0,29.87,SSE,150,6.0,-999.0,75,-99.99,,,0.00,230,weatherlink.com 1.10,2013-04-11 21:04:00,
2013-04-11 17:19:00,81.1,73.0,29.87,SSE,151,3.0,-999.0,75,-99.99,,,0.00,332,weatherlink.com 1.10,2013-04-11 21:19:00,
2013-04-11 17:34:00,80.9,72.0,29.87,SSE,159,6.0,-999.0,75,-99.99,,,0.00,183,weatherlink.com 1.10,2013-04-11 21:34:00,
2013-04-11 17:49:00,80.9,72.0,29.87,SSE,148,6.0,-999.0,75,-99.99,,,0.00,137,weatherlink.com 1.10,2013-04-11 21:49:00,
2013-04-11 18:04:00,80.7,73.0,29.87,SSE,152,10.0,-999.0,76,-99.99,,,0.00,146,weatherlink.com 1.10,2013-04-11 22:04:00,
2013-04-11 18:20:00,80.7,73.0,29.87,SSE,154,5.0,-999.0,77,-99.99,,,0.00,113,weatherlink.com 1.10,2013-04-11 22:20:00,
2013-04-11 18:34:00,80.5,73.0,29.87,SE,136,0.0,-999.0,78,-99.99,,,0.00,86,weatherlink.com 1.10,2013-04-11 22:34:00,
2013-04-11 18:49:00,80.3,73.0,29.87,ESE,117,0.0,-999.0,78,-99.99,,,0.00,33,weatherlink.com 1.10,2013-04-11 22:49:00,
2013-04-11 19:04:00,80.1,73.0,29.87,SSE,155,7.0,-999.0,79,-99.99,,,0.00,21,weatherlink.com 1.10,2013-04-11 23:04:00,
2013-04-11 19:19:00,79.9,73.0,29.87,SSE,148,2.0,-999.0,79,-99.99,,,0.00,18,weatherlink.com 1.10,2013-04-11 23:19:00,
2013-04-11 19:34:00,79.6,73.0,29.87,SSE,159,0.0,-999.0,80,-99.99,,,0.00,9,weatherlink.com 1.10,2013-04-11 23:34:00,
2013-04-11 19:49:00,79.4,73.0,29.87,ENE,75,1.0,-999.0,81,-99.99,,,0.00,0,weatherlink.com 1.10,2013-04-11 23:49:00,
2013-04-11 20:04:00,79.2,73.0,29.87,East,86,2.0,-999.0,82,-99.99,,,0.00,0,weatherlink.com 1.10,2013-04-12 00:04:00,
2013-04-11 20:19:00,79.0,73.0,29.87,SE,141,0.0,-999.0,82,-99.99,,,0.00,0,weatherlink.com 1.10,2013-04-12 00:19:00,
2013-04-11 20:34:00,78.6,73.0,29.86,SSE,157,0.0,-999.0,82,-99.99,,,0.00,0,weatherlink.com 1.10,2013-04-12 00:34:00,
2013-04-11 20:49:00,78.6,73.0,29.86,SSE,153,2.0,-999.0,82,-99.99,,,0.00,0,weatherlink.com 1.10,2013-04-12 00:49:00,
2013-04-11 21:04:00,78.6,73.0,29.86,South,172,5.0,-999.0,82,-99.99,,,0.00,0,weatherlink.com 1.10,2013-04-12 01:04:00,
2013-04-11 21:19:00,78.6,73.0,29.87,SE,142,1.0,-999.0,83,-99.99,,,0.00,0,weatherlink.com 1.10,2013-04-12 01:19:00,
2013-04-11 21:34:00,78.6,73.0,29.87,SSE,161,1.0,-999.0,83,-99.99,,,0.00,0,weatherlink.com 1.10,2013-04-12 01:34:00,
2013-04-11 21:49:00,78.5,73.0,29.87,SE,146,3.0,-999.0,83,-99.99,,,0.00,0,weatherlink.com 1.10,2013-04-12 01:49:00,
2013-04-11 22:04:00,78.3,73.0,29.88,SE,136,2.0,-999.0,83,-99.99,,,0.00,0,weatherlink.com 1.10,2013-04-12 02:04:00,
2013-04-11 22:19:00,78.3,73.0,29.88,SSE,150,8.0,-999.0,83,-99.99,,,0.00,0,weatherlink.com 1.10,2013-04-12 02:19:00,
2013-04-11 22:34:00,78.5,73.0,29.88,SSE,149,3.0,-999.0,83,-99.99,,,0.00,0,weatherlink.com 1.10,2013-04-12 02:34:00,
2013-04-11 22:49:00,78.3,73.0,29.88,SE,132,2.0,-999.0,83,-99.99,,,0.00,0,weatherlink.com 1.10,2013-04-12 02:49:00,
2013-04-11 23:04:00,78.3,73.0,29.88,SSE,156,3.0,-999.0,83,-99.99,,,0.00,0,weatherlink.com 1.10,2013-04-12 03:04:00,
2013-04-11 23:19:00,78.3,73.0,29.87,SSE,148,5.0,-999.0,83,-99.99,,,0.00,0,weatherlink.com 1.10,2013-04-12 03:19:00,
2013-04-11 23:34:00,78.3,73.0,29.87,SE,143,7.0,-999.0,84,-99.99,,,0.00,0,weatherlink.com 1.10,2013-04-12 03:34:00,
2013-04-11 23:49:00,78.3,73.0,29.87,SSE,155,7.0,-999.0,84,-99.99,,,0.00,0,weatherlink.com 1.10,2013-04-12 03:49:00,